Time;durP1;ratioP1;P1;durP2;ratioP2;P2;SDS_P1;SDS_P2;PMS_P1;PMS_P2;Temp;Humidity;BMP_temperature;BMP_pressure;BME280_temperature;BME280_humidity;BME280_pressure;Samples;Min_cycle;Max_cycle;Signal;HPM_P1;HPM_P2
2022/01/04 00:00:31;;;;;;;2.30;0.60;;;8.40;99.90;;;6.80;100.00;99913.59;2567803;30;138307;-40
2022/01/04 00:02:58;;;;;;;2.20;0.60;;;8.40;99.90;;;6.83;100.00;99913.16;2568125;30;138311;-40
2022/01/04 00:05:26;;;;;;;2.35;0.45;;;8.40;99.90;;;6.81;100.00;99904.41;2568493;30;137428;-40
2022/01/04 00:07:54;;;;;;;2.35;0.47;;;8.40;99.90;;;6.80;100.00;99898.19;2568485;30;137093;-40
2022/01/04 00:10:23;;;;;;;0.68;0.30;;;8.40;99.90;;;6.81;100.00;99885.44;2567842;30;137108;-40
2022/01/04 00:15:41;;;;;;;1.73;0.60;;;8.30;99.90;;;6.79;100.00;99890.25;2566015;30;137132;-40
2022/01/04 00:18:08;;;;;;;1.60;0.73;;;8.40;99.90;;;6.71;100.00;99883.16;2568300;30;138972;-40
2022/01/04 00:20:36;;;;;;;1.25;0.40;;;8.30;99.90;;;6.70;100.00;99887.75;2568294;30;138115;-41
2022/01/04 00:23:04;;;;;;;1.30;0.57;;;8.30;99.90;;;6.61;100.00;99883.56;2565304;30;139055;-40
2022/01/04 00:25:32;;;;;;;0.95;0.47;;;8.30;99.90;;;6.59;100.00;99869.41;2567524;30;138576;-40
2022/01/04 00:28:01;;;;;;;;;;;8.20;99.90;;;6.61;100.00;99864.59;2569187;30;138376;-40
2022/01/04 00:30:29;;;;;;;1.02;0.50;;;8.20;99.90;;;6.62;100.00;99858.97;2566018;30;136763;-40
2022/01/04 00:32:56;;;;;;;;;;;8.20;99.90;;;6.65;100.00;99846.91;2567483;30;138049;-40
2022/01/04 00:35:24;;;;;;;4.10;0.60;;;8.20;99.90;;;6.57;100.00;99839.81;2564534;30;138036;-40
2022/01/04 00:37:51;;;;;;;1.23;0.60;;;8.20;99.90;;;6.51;100.00;99834.38;2566927;30;139004;-40
2022/01/04 00:40:19;;;;;;;3.42;0.60;;;8.10;99.90;;;6.51;100.00;99824.41;2567180;30;136728;-40
2022/01/04 00:42:46;;;;;;;1.77;0.63;;;8.10;99.90;;;6.54;100.00;99823.13;2567853;30;139206;-40
2022/01/04 00:45:14;;;;;;;1.52;0.60;;;8.10;99.90;;;6.46;100.00;99814.19;2568367;30;137530;-40
2022/01/04 00:49:09;;;;;;;2.55;0.63;;;8.10;99.90;;;6.44;100.00;99812.72;2566773;30;139062;-40
2022/01/04 00:50:35;;;;;;;1.90;0.60;;;8.10;99.90;;;6.43;100.00;99808.34;2568190;30;138324;-40
2022/01/04 00:53:04;;;;;;;1.15;0.52;;;8.00;99.90;;;6.40;100.00;99809.59;2568329;30;138354;-40
2022/01/04 00:55:33;;;;;;;1.02;0.47;;;8.00;99.90;;;6.37;100.00;99810.03;2567486;30;137503;-40
2022/01/04 00:58:03;;;;;;;1.98;0.65;;;8.00;99.90;;;6.32;100.00;99798.97;2567948;30;138398;-40
2022/01/04 01:00:34;;;;;;;2.15;0.57;;;8.00;99.90;;;6.31;100.00;99791.88;2568166;30;138213;-40
2022/01/04 01:03:07;;;;;;;3.40;0.65;;;8.00;99.90;;;6.33;100.00;99781.66;2567626;30;138258;-40
2022/01/04 01:05:34;;;;;;;2.90;0.70;;;7.90;99.90;;;6.33;100.00;99778.97;2566665;30;137216;-41
2022/01/04 01:08:05;;;;;;;2.00;0.63;;;8.00;99.90;;;6.30;100.00;99773.97;2566152;30;138585;-41
2022/01/04 01:10:48;;;;;;;1.17;0.63;;;8.00;99.90;;;6.28;100.00;99770.63;2568060;30;136670;-40
2022/01/04 01:13:17;;;;;;;2.15;0.68;;;7.90;99.90;;;6.24;100.00;99763.97;2568771;30;138309;-40
2022/01/04 01:15:46;;;;;;;2.15;0.70;;;7.90;99.90;;;6.22;100.00;99764.16;2566898;30;138277;-40
2022/01/04 01:18:17;;;;;;;2.58;0.70;;;7.90;99.90;;;6.24;100.00;99758.56;2568251;30;138144;-41
2022/01/04 01:20:48;;;;;;;2.40;0.82;;;7.90;99.90;;;6.26;100.00;99754.59;2567616;30;136782;-40
2022/01/04 01:23:17;;;;;;;1.38;0.60;;;7.90;99.90;;;6.24;100.00;99758.56;2566203;30;138618;-40
2022/01/04 01:25:46;;;;;;;1.42;0.70;;;7.80;99.90;;;6.25;100.00;99761.06;2566698;30;137594;-40
2022/01/04 01:28:15;;;;;;;2.05;0.68;;;7.90;99.90;;;6.29;100.00;99756.03;2567558;30;137839;-40
2022/01/04 01:30:44;;;;;;;2.20;0.80;;;7.90;99.90;;;6.30;100.00;99752.28;2567524;30;136577;-40
2022/01/04 01:33:12;;;;;;;2.65;0.80;;;7.90;99.90;;;6.28;100.00;99752.53;2567372;30;137406;-41
2022/01/04 01:35:41;;;;;;;2.10;0.80;;;7.90;99.90;;;6.27;100.00;99750.84;2565370;30;137517;-41
2022/01/04 01:38:14;;;;;;;2.70;0.88;;;7.90;99.90;;;6.24;100.00;99745.88;2567593;30;138268;-40
2022/01/04 01:40:43;;;;;;;3.15;1.10;;;7.90;99.90;;;6.22;100.00;99745.22;2567735;30;138295;-40
2022/01/04 01:43:10;;;;;;;1.77;0.63;;;7.80;99.90;;;6.22;100.00;99745.22;2568289;30;138189;-40
2022/01/04 01:45:38;;;;;;;1.25;0.57;;;7.80;99.90;;;6.26;100.00;99738.34;2567872;30;138144;-40
2022/01/04 01:48:06;;;;;;;3.45;0.98;;;7.80;99.90;;;6.27;100.00;99740.03;2567876;30;139429;-40
2022/01/04 01:50:37;;;;;;;2.38;0.95;;;7.90;99.90;;;6.28;100.00;99732.72;2567902;30;138203;-40
2022/01/04 01:53:06;;;;;;;3.10;0.75;;;7.90;99.90;;;6.31;100.00;99732.28;2566925;30;138258;-40
2022/01/04 01:55:36;;;;;;;5.05;0.93;;;7.90;99.90;;;6.28;100.00;99730.00;2564472;30;137444;-41
2022/01/04 01:58:03;;;;;;;1.92;0.68;;;7.90;99.90;;;6.27;100.00;99729.19;2566959;30;137406;-40
2022/01/04 02:00:31;;;;;;;2.17;0.80;;;7.80;99.90;;;6.27;100.00;99725.63;2566390;30;137449;-40
2022/01/04 02:03:00;;;;;;;4.53;0.70;;;7.90;99.90;;;6.28;100.00;99724.59;2568554;30;138116;-41
2022/01/04 02:05:28;;;;;;;2.10;0.70;;;7.90;99.90;;;6.23;100.00;99727.91;2567577;30;137522;-40
2022/01/04 02:07:58;;;;;;;2.10;0.60;;;7.80;99.90;;;6.21;100.00;99716.47;2569466;30;137083;-40
2022/01/04 02:10:26;;;;;;;1.85;0.52;;;7.80;99.90;;;6.18;100.00;99709.59;2568567;30;138213;-40
2022/01/04 02:12:54;;;;;;;2.92;0.70;;;7.80;99.90;;;6.15;100.00;99701.91;2568544;30;137247;-40
2022/01/04 02:15:24;;;;;;;;;;;7.80;99.90;;;6.17;100.00;99702.53;2566986;30;137514;-40
2022/01/04 02:17:52;;;;;;;1.90;0.60;;;7.80;99.90;;;6.12;100.00;99693.34;2568718;30;137062;-40
2022/01/04 02:20:20;;;;;;;1.33;0.47;;;7.80;99.90;;;6.14;100.00;99688.56;2566475;30;138406;-40
2022/01/04 02:22:49;;;;;;;1.75;0.60;;;7.70;99.90;;;6.15;100.00;99690.22;2568243;30;138195;-40
2022/01/04 02:25:17;;;;;;;1.95;0.63;;;7.80;99.90;;;6.12;100.00;99685.22;2568525;30;137886;-40
2022/01/04 02:27:45;;;;;;;;;;;7.80;99.90;;;6.17;100.00;99688.97;2568447;30;137436;-40
2022/01/04 02:30:17;;;;;;;1.65;0.80;;;7.80;99.90;;;6.18;100.00;99693.34;2567552;30;136966;-40
2022/01/04 02:32:47;;;;;;;1.60;0.68;;;7.80;99.90;;;6.16;100.00;99684.59;2567816;30;139056;-40
2022/01/04 02:35:20;;;;;;;2.05;0.60;;;7.80;99.90;;;6.12;100.00;99679.81;2567704;30;137559;-40
2022/01/04 02:37:47;;;;;;;2.58;0.80;;;7.70;99.90;;;6.12;100.00;99680.66;2568873;30;137148;-40
2022/01/04 02:40:15;;;;;;;2.50;0.65;;;7.70;99.90;;;6.15;100.00;99671.25;2569304;30;137443;-41
2022/01/04 02:42:43;;;;;;;;;;;7.80;99.90;;;6.11;100.00;99675.44;2567304;30;137168;-40
2022/01/04 02:45:11;;;;;;;2.38;0.80;;;7.70;99.90;;;6.10;100.00;99658.38;2567237;30;136734;-40
2022/01/04 02:47:39;;;;;;;;;;;7.70;99.90;;;6.11;100.00;99661.91;2568893;30;137701;-41
2022/01/04 02:50:09;;;;;;;3.13;0.88;;;7.70;99.90;;;6.11;100.00;99649.22;2566920;30;137139;-40
2022/01/04 02:52:38;;;;;;;1.65;0.77;;;7.70;99.90;;;6.11;100.00;99651.91;2568519;30;138343;-40
2022/01/04 02:55:10;;;;;;;0.98;0.60;;;7.70;99.90;;;6.16;100.00;99657.53;2567497;30;137482;-40
2022/01/04 02:57:38;;;;;;;2.97;0.80;;;7.70;99.90;;;6.09;100.00;99656.69;2567863;30;138296;-40
2022/01/04 03:00:10;;;;;;;1.77;0.80;;;7.70;99.90;;;6.10;100.00;99655.69;2568492;30;138467;-41
2022/01/04 03:02:40;;;;;;;1.30;0.65;;;7.70;99.90;;;6.09;100.00;99659.41;2568607;30;138938;-40
2022/01/04 03:05:09;;;;;;;1.35;0.65;;;7.70;99.90;;;6.13;100.00;99665.22;2568112;30;138188;-41
2022/01/04 03:07:38;;;;;;;2.13;0.52;;;7.70;99.90;;;6.08;100.00;99659.63;2567708;30;139029;-40
2022/01/04 03:10:07;;;;;;;2.28;0.85;;;7.70;99.90;;;6.15;100.00;99657.72;2567762;30;138400;-40
2022/01/04 03:12:39;;;;;;;2.30;0.80;;;7.70;99.90;;;6.11;100.00;99651.91;2569258;30;137088;-40
2022/01/04 03:15:07;;;;;;;1.58;1.00;;;7.70;99.90;;;6.11;100.00;99643.78;2564742;30;138483;-41
2022/01/04 03:17:34;;;;;;;;;;;7.70;99.90;;;6.07;100.00;99634.41;2568024;30;137376;-41
2022/01/04 03:20:03;;;;;;;1.30;0.65;;;7.70;99.90;;;6.07;100.00;99633.59;2567280;30;137245;-41
2022/01/04 03:22:31;;;;;;;2.13;0.77;;;7.70;99.90;;;6.07;100.00;99626.28;2567772;30;137904;-40
2022/01/04 03:24:59;;;;;;;2.78;0.77;;;7.70;99.90;;;6.10;100.00;99625.03;2568326;30;136991;-41
2022/01/04 03:27:26;;;;;;;1.48;0.65;;;7.70;99.90;;;6.06;100.00;99607.56;2567958;30;138404;-41
2022/01/04 03:34:25;;;;;;;3.90;0.70;;;7.70;99.90;;;6.04;100.00;99586.09;2569628;30;138109;-38
2022/01/04 03:36:52;;;;;;;1.88;0.70;;;7.70;99.90;;;6.04;100.00;99581.53;2569789;30;138079;-39
2022/01/04 03:39:20;;;;;;;1.38;0.60;;;7.70;99.90;;;6.04;100.00;99575.25;2568005;30;138076;-38
2022/01/04 03:41:47;;;;;;;1.52;0.80;;;7.70;99.90;;;6.02;100.00;99561.09;2571238;30;138552;-39
2022/01/04 03:44:20;;;;;;;;;;;7.60;99.90;;;5.99;100.00;99567.78;2569653;30;137834;-39
2022/01/04 03:46:55;;;;;;;3.45;0.70;;;7.60;99.90;;;6.00;100.00;99557.75;2571582;30;138154;-39
2022/01/04 03:49:24;;;;;;;1.77;0.70;;;7.60;99.90;;;6.00;100.00;99558.59;2569638;30;136948;-38
2022/01/04 03:51:51;;;;;;;2.15;0.90;;;7.60;99.90;;;6.01;100.00;99540.50;2569101;30;138479;-39
2022/01/04 03:54:22;;;;;;;3.40;0.80;;;7.60;99.90;;;6.01;100.00;99537.78;2569419;30;136956;-38
2022/01/04 03:56:50;;;;;;;2.50;0.90;;;7.60;99.90;;;6.01;100.00;99529.66;2569483;30;137297;-38
2022/01/04 03:59:18;;;;;;;1.70;0.80;;;7.60;99.90;;;6.01;100.00;99521.53;2569835;30;137886;-38
2022/01/04 04:01:45;;;;;;;1.58;0.80;;;7.60;99.90;;;6.00;100.00;99526.09;2569774;30;139034;-39
2022/01/04 04:04:13;;;;;;;3.15;0.77;;;7.60;99.90;;;6.00;100.00;99525.25;2568157;30;137999;-38
2022/01/04 04:06:41;;;;;;;;;;;7.60;99.90;;;5.99;100.00;99518.19;2567884;30;140539;-39
2022/01/04 04:09:08;;;;;;;2.97;0.82;;;7.60;99.90;;;6.04;100.00;99502.16;2569407;30;137033;-38
2022/01/04 04:11:36;;;;;;;2.38;0.70;;;7.60;99.90;;;6.04;100.00;99502.16;2569902;30;138317;-38
2022/01/04 04:14:04;;;;;;;2.70;1.00;;;7.70;99.90;;;6.04;100.00;99491.31;2569567;30;136613;-38
2022/01/04 04:16:33;;;;;;;3.38;1.08;;;7.60;99.90;;;6.02;100.00;99488.00;2568028;30;138307;-38
2022/01/04 04:19:01;;;;;;;1.92;0.85;;;7.60;99.90;;;5.99;100.00;99480.28;2571685;30;138518;-39
2022/01/04 04:21:28;;;;;;;3.78;1.15;;;7.60;99.90;;;5.96;100.00;99470.69;2568983;30;138941;-39
2022/01/04 04:23:56;;;;;;;1.90;1.08;;;7.60;99.90;;;5.98;100.00;99463.22;2567462;30;137095;-39
2022/01/04 04:26:23;;;;;;;1.65;0.98;;;7.60;99.90;;;5.96;100.00;99461.75;2567003;30;137048;-39
2022/01/04 04:28:50;;;;;;;2.42;1.00;;;7.60;99.90;;;5.95;100.00;99462.81;2571025;30;136683;-39
2022/01/04 04:31:18;;;;;;;2.70;1.10;;;7.60;99.90;;;5.96;100.00;99465.28;2566141;38;138513;-39
2022/01/04 04:33:45;;;;;;;3.25;1.15;;;7.60;99.90;;;5.96;100.00;99454.47;2571431;30;136876;-39
2022/01/04 04:36:13;;;;;;;2.63;1.08;;;7.60;99.90;;;5.98;100.00;99444.28;2568440;30;138323;-38
2022/01/04 04:38:40;;;;;;;2.55;1.35;;;7.60;99.90;;;5.96;100.00;99440.91;2568071;30;137785;-38
2022/01/04 04:41:08;;;;;;;2.38;1.20;;;7.60;99.90;;;6.00;100.00;99441.31;2570360;30;137947;-39
2022/01/04 04:43:35;;;;;;;2.55;1.25;;;7.60;99.90;;;5.97;100.00;99428.22;2570198;30;136678;-38
2022/01/04 04:46:03;;;;;;;3.67;1.50;;;7.60;99.90;;;5.96;100.00;99435.50;2568623;30;138658;-39
2022/01/04 04:48:30;;;;;;;2.80;1.35;;;7.60;99.90;;;5.95;100.00;99430.31;2567795;30;137384;-39
2022/01/04 04:50:58;;;;;;;2.17;1.23;;;7.60;99.90;;;5.91;100.00;99424.50;2568562;30;137921;-39
2022/01/04 04:53:25;;;;;;;3.22;1.40;;;7.50;99.90;;;5.90;100.00;99426.41;2569486;30;136567;-39
2022/01/04 04:55:53;;;;;;;3.97;1.77;;;7.50;99.90;;;5.92;100.00;99428.06;2568713;30;136914;-39
2022/01/04 04:58:20;;;;;;;2.78;1.55;;;7.50;99.90;;;5.91;100.00;99432.63;2570015;30;137363;-39
2022/01/04 05:00:48;;;;;;;3.72;1.60;;;7.50;99.90;;;5.88;100.00;99430.34;2569750;30;136888;-38
2022/01/04 05:03:15;;;;;;;6.78;1.60;;;7.50;99.90;;;5.94;100.00;99429.47;2568723;30;137832;-38
2022/01/04 05:05:43;;;;;;;2.55;1.40;;;7.50;99.90;;;5.93;100.00;99421.59;2567394;30;138064;-39
2022/01/04 05:08:10;;;;;;;4.18;1.50;;;7.50;99.90;;;5.92;100.00;99428.88;2570362;30;137609;-39
2022/01/04 05:10:38;;;;;;;2.65;1.52;;;7.50;99.90;;;5.96;100.00;99424.69;2568257;30;138839;-38
2022/01/04 05:13:05;;;;;;;6.13;2.00;;;7.60;99.90;;;5.92;100.00;99428.06;2568964;30;137488;-39
2022/01/04 05:15:33;;;;;;;4.05;1.52;;;7.50;99.90;;;5.86;100.00;99429.75;2568838;30;137423;-39
2022/01/04 05:18:00;;;;;;;3.83;1.88;;;7.50;99.90;;;5.90;100.00;99422.84;2569804;30;136680;-39
2022/01/04 05:20:28;;;;;;;4.22;2.20;;;7.50;99.90;;;5.98;100.00;99430.72;2569678;30;138557;-38
2022/01/04 05:22:56;;;;;;;4.15;1.70;;;7.50;99.90;;;5.94;100.00;99434.09;2568859;30;137208;-38
2022/01/04 05:25:23;;;;;;;5.95;1.63;;;7.50;99.90;;;5.87;100.00;99432.25;2569227;30;137236;-39
2022/01/04 05:27:50;;;;;;;6.18;2.20;;;7.50;99.90;;;5.86;100.00;99430.59;2570124;30;137459;-39
2022/01/04 05:30:18;;;;;;;7.15;1.85;;;7.50;99.90;;;5.87;100.00;99432.25;2571311;30;138303;-39
2022/01/04 05:32:45;;;;;;;6.15;1.63;;;7.50;99.90;;;5.87;100.00;99428.69;2568310;30;136912;-38
2022/01/04 05:35:13;;;;;;;3.20;1.75;;;7.50;99.90;;;5.86;100.00;99430.59;2568601;30;138632;-39
2022/01/04 05:37:40;;;;;;;3.38;1.65;;;7.50;99.90;;;5.86;100.00;99429.75;2568219;30;137578;-38
2022/01/04 05:40:09;;;;;;;4.55;2.00;;;7.50;99.90;;;5.87;100.00;99429.53;2570943;30;137322;-38
2022/01/04 05:42:37;;;;;;;4.00;2.13;;;7.50;99.90;;;5.85;100.00;99442.47;2570352;30;136794;-38
2022/01/04 05:45:05;;;;;;;3.53;2.03;;;7.50;99.90;;;5.82;100.00;99423.91;2569188;30;137405;-39
2022/01/04 05:47:33;;;;;;;4.03;1.80;;;7.50;99.90;;;5.82;100.00;99415.78;2570446;30;137297;-39
2022/01/04 05:50:01;;;;;;;3.92;1.90;;;7.50;99.90;;;5.86;100.00;99408.09;2567614;30;138176;-39
2022/01/04 05:52:28;;;;;;;5.20;2.15;;;7.50;99.90;;;5.88;100.00;99396.00;2570931;30;137325;-39
2022/01/04 05:54:56;;;;;;;4.22;1.95;;;7.50;99.90;;;5.85;100.00;99390.19;2568221;30;138553;-39
2022/01/04 05:57:23;;;;;;;4.25;1.90;;;7.50;99.90;;;5.86;100.00;99381.00;2569145;30;137313;-39
2022/01/04 05:59:51;;;;;;;3.90;2.05;;;7.50;99.90;;;5.88;100.00;99377.06;2569561;30;137454;-39
2022/01/04 06:02:18;;;;;;;6.30;1.83;;;7.50;99.90;;;5.87;100.00;99378.09;2571735;30;137600;-39
2022/01/04 06:04:46;;;;;;;5.07;2.42;;;7.50;99.90;;;5.91;100.00;99381.19;2570332;30;138153;-39
2022/01/04 06:07:13;;;;;;;4.75;2.30;;;7.50;99.90;;;5.88;100.00;99371.63;2568181;30;137360;-39
2022/01/04 06:09:45;;;;;;;4.85;1.80;;;7.50;99.90;;;5.84;100.00;99367.72;2569499;30;137355;-39
2022/01/04 06:15:14;;;;;;;4.45;2.15;;;7.50;99.90;;;5.82;100.00;99363.56;2565420;30;137817;-38
2022/01/04 06:17:49;;;;;;;6.60;2.33;;;7.50;99.90;;;5.80;100.00;99363.75;2571918;30;138339;-39
2022/01/04 06:20:21;;;;;;;3.78;1.90;;;7.40;99.90;;;5.80;100.00;99358.34;2567109;30;137567;-39
2022/01/04 06:22:51;;;;;;;4.15;2.00;;;7.40;99.90;;;5.82;100.00;99361.66;2569876;30;136941;-39
2022/01/04 06:25:22;;;;;;;5.38;2.00;;;7.40;99.90;;;5.81;100.00;99351.88;2568631;30;137509;-38
2022/01/04 06:27:53;;;;;;;4.50;2.25;;;7.40;99.90;;;5.80;100.00;99352.94;2569339;30;138186;-39
2022/01/04 06:30:22;;;;;;;3.55;2.00;;;7.40;99.90;;;5.79;100.00;99345.03;2570528;30;138164;-39
2022/01/04 06:32:51;;;;;;;5.18;2.45;;;7.50;99.90;;;5.82;100.00;99352.72;2571135;30;138135;-39
2022/01/04 06:35:19;;;;;;;4.47;2.25;;;7.40;99.90;;;5.84;100.00;99334.38;2567481;30;139068;-38
2022/01/04 06:37:46;;;;;;;4.55;2.30;;;7.50;99.90;;;5.83;100.00;99336.25;2571008;30;137061;-39
2022/01/04 06:40:14;;;;;;;5.15;2.30;;;7.40;99.90;;;5.82;100.00;99337.31;2569387;30;137227;-39
2022/01/04 06:42:42;;;;;;;4.70;2.40;;;7.40;99.90;;;5.80;100.00;99330.47;2570558;30;138205;-38
2022/01/04 06:45:14;;;;;;;7.53;2.47;;;7.40;99.90;;;5.81;100.00;99334.81;2568968;30;138247;-39
2022/01/04 06:47:41;;;;;;;5.03;2.47;;;7.40;99.90;;;5.77;100.00;99331.72;2567153;30;138247;-39
2022/01/04 06:50:11;;;;;;;5.05;2.30;;;7.40;99.90;;;5.78;100.00;99330.66;2569623;30;138355;-38
2022/01/04 06:52:39;;;;;;;5.20;2.38;;;7.40;99.90;;;5.83;100.00;99330.84;2570143;30;137402;-38
2022/01/04 06:55:07;;;;;;;6.90;2.72;;;7.40;99.90;;;5.84;100.00;99332.53;2569069;30;138336;-38
2022/01/04 06:57:35;;;;;;;4.63;2.35;;;7.40;99.90;;;5.80;100.00;99320.44;2569804;30;136675;-39
2022/01/04 07:00:04;;;;;;;5.38;2.60;;;7.40;99.90;;;5.81;100.00;99322.09;2570203;30;137808;-39
2022/01/04 07:02:32;;;;;;;5.53;2.70;;;7.40;99.90;;;5.77;100.00;99323.59;2567430;30;138554;-39
2022/01/04 07:05:00;;;;;;;5.95;2.65;;;7.40;99.90;;;5.73;100.00;99320.50;2569419;30;138366;-39
2022/01/04 07:07:27;;;;;;;7.35;3.17;;;7.40;99.90;;;5.74;100.00;99326.75;2567990;30;138474;-38
2022/01/04 07:09:55;;;;;;;6.57;2.92;;;7.40;99.90;;;5.74;100.00;99327.59;2569635;30;138352;-38
2022/01/04 07:12:22;;;;;;;4.97;2.88;;;7.40;99.90;;;5.74;100.00;99334.84;2569525;30;137005;-38
2022/01/04 07:14:50;;;;;;;5.95;2.65;;;7.40;99.90;;;5.72;100.00;99320.72;2568908;30;137892;-38
2022/01/04 07:17:17;;;;;;;6.10;2.63;;;7.40;99.90;;;5.72;100.00;99318.84;2569456;30;137664;-39
2022/01/04 07:19:46;;;;;;;6.03;3.00;;;7.40;99.90;;;5.70;100.00;99315.53;2565569;30;138288;-39
2022/01/04 07:22:14;;;;;;;7.78;3.20;;;7.30;99.90;;;5.66;100.00;99314.28;2569934;30;137706;-39
2022/01/04 07:24:42;;;;;;;6.80;3.00;;;7.30;99.90;;;5.63;100.00;99301.19;2569311;30;137246;-38
2022/01/04 07:27:09;;;;;;;6.65;3.28;;;7.30;99.90;;;5.67;100.00;99299.72;2568347;30;137399;-39
2022/01/04 07:29:37;;;;;;;7.50;3.60;;;7.30;99.90;;;5.66;100.00;99291.81;2569957;30;138656;-39
2022/01/04 07:32:05;;;;;;;6.28;3.15;;;7.30;99.90;;;5.65;100.00;99301.00;2569771;30;137933;-38
2022/01/04 07:34:32;;;;;;;8.60;3.63;;;7.30;99.90;;;5.63;100.00;99303.91;2569464;30;138317;-38
2022/01/04 07:37:00;;;;;;;9.38;4.10;;;7.30;99.90;;;5.64;100.00;99294.75;2569519;30;137521;-39
2022/01/04 07:39:27;;;;;;;8.50;4.03;;;7.30;99.90;;;5.65;100.00;99292.88;2569815;30;137878;-38
2022/01/04 07:41:57;;;;;;;10.13;4.15;;;7.30;99.90;;;5.65;100.00;99301.81;2567948;30;136741;-38
2022/01/04 07:44:25;;;;;;;10.15;4.15;;;7.30;99.90;;;5.65;100.00;99293.69;2569505;30;137459;-39
2022/01/04 07:46:53;;;;;;;7.78;4.05;;;7.30;99.90;;;5.65;100.00;99290.97;2569366;30;137233;-39
2022/01/04 07:49:21;;;;;;;;;;;7.30;99.90;;;5.63;100.00;99298.50;2569788;30;138299;-38
2022/01/04 07:51:48;;;;;;;8.23;4.28;;;7.30;99.90;;;5.63;100.00;99289.56;2568174;30;136579;-39
2022/01/04 07:54:16;;;;;;;9.85;4.80;;;7.30;99.90;;;5.64;100.00;99288.50;2569973;30;137250;-38
2022/01/04 07:56:43;;;;;;;10.18;5.20;;;7.30;99.90;;;5.61;100.00;99295.19;2570394;30;136642;-38
2022/01/04 07:59:15;;;;;;;10.13;4.78;;;7.30;99.90;;;5.67;100.00;99293.50;2568763;30;138895;-38
2022/01/04 08:01:43;;;;;;;9.45;4.75;;;7.30;99.90;;;5.68;100.00;99295.16;2568431;30;137519;-38
2022/01/04 08:04:11;;;;;;;10.52;5.43;;;7.30;99.90;;;5.64;100.00;99277.69;2569797;30;137211;-39
2022/01/04 08:06:39;;;;;;;10.00;4.93;;;7.30;99.90;;;5.68;100.00;99284.31;2571687;30;138056;-39
2022/01/04 08:09:06;;;;;;;9.35;5.28;;;7.30;99.90;;;5.68;100.00;99289.72;2570501;30;136997;-38
2022/01/04 08:11:34;;;;;;;12.00;6.20;;;7.30;99.90;;;5.72;100.00;99297.22;2570019;30;137233;-39
2022/01/04 08:14:02;;;;;;;12.18;5.93;;;7.30;99.90;;;5.74;100.00;99299.69;2568998;30;137822;-39
2022/01/04 08:16:29;;;;;;;9.02;5.22;;;7.30;99.90;;;5.75;100.00;99293.22;2568891;30;137395;-39
2022/01/04 08:18:57;;;;;;;10.23;4.85;;;7.40;99.90;;;5.77;100.00;99291.13;2570999;30;138247;-38
2022/01/04 08:21:33;;;;;;;9.90;5.13;;;7.40;99.90;;;5.75;100.00;99298.63;2567845;30;138438;-39
2022/01/04 08:24:01;;;;;;;10.88;4.82;;;7.40;99.90;;;5.76;100.00;99290.31;2570128;30;137818;-39
2022/01/04 08:26:31;;;;;;;;;;;7.40;99.90;;;5.78;100.00;99295.47;2571975;30;137127;-39
2022/01/04 08:28:59;;;;;;;12.35;5.20;;;7.40;99.90;;;5.78;100.00;99283.84;2572397;30;138163;-39
2022/01/04 08:31:26;;;;;;;11.43;5.65;;;7.40;99.90;;;5.78;100.00;99281.94;2567681;30;137426;-39
2022/01/04 08:33:54;;;;;;;9.55;5.07;;;7.40;99.90;;;5.79;100.00;99288.22;2570629;30;138991;-39
2022/01/04 08:36:27;;;;;;;12.88;5.63;;;7.40;99.90;;;5.84;100.00;99286.50;2567649;30;138277;-38
2022/01/04 08:38:58;;;;;;;11.73;5.25;;;7.40;99.90;;;5.87;100.00;99285.22;2570363;30;137342;-39
2022/01/04 08:41:26;;;;;;;10.45;5.05;;;7.40;99.90;;;5.85;100.00;99284.63;2569736;30;137757;-38
2022/01/04 08:43:55;;;;;;;10.45;4.95;;;7.40;99.90;;;5.90;100.00;99282.91;2568835;30;138291;-38
2022/01/04 08:46:24;;;;;;;11.50;4.95;;;7.50;99.90;;;5.87;100.00;99285.22;2566159;30;137441;-38
2022/01/04 08:48:52;;;;;;;9.10;4.57;;;7.50;99.90;;;5.87;100.00;99269.81;2568267;30;137233;-39
2022/01/04 08:51:20;;;;;;;10.02;5.22;;;7.50;99.90;;;5.87;100.00;99282.53;2568428;30;138498;-39
2022/01/04 08:53:47;;;;;;;;;;;7.50;99.90;;;5.89;100.00;99281.25;2570496;30;138252;-38
2022/01/04 08:56:18;;;;;;;11.90;5.20;;;7.50;99.90;;;5.86;100.00;99281.72;2569160;30;137003;-38
2022/01/04 08:58:46;;;;;;;9.95;4.85;;;7.50;99.90;;;5.94;100.00;99293.31;2568005;30;137454;-39
2022/01/04 09:01:14;;;;;;;9.65;4.90;;;7.50;99.90;;;5.96;100.00;99297.44;2569289;30;138607;-39
2022/01/04 09:03:41;;;;;;;11.00;5.07;;;7.50;99.90;;;5.96;100.00;99294.72;2569294;30;138053;-38
2022/01/04 09:06:13;;;;;;;10.75;5.03;;;7.60;99.90;;;5.96;100.00;99291.22;2566558;30;136913;-39
2022/01/04 09:08:43;;;;;;;10.45;5.15;;;7.60;99.90;;;5.95;100.00;99297.66;2568464;30;138234;-39
2022/01/04 09:11:10;;;;;;;9.10;4.47;;;7.60;99.90;;;6.02;100.00;99295.75;2568254;30;138336;-39
2022/01/04 09:13:42;;;;;;;8.48;4.25;;;7.60;99.90;;;6.02;100.00;99295.75;2568867;30;138345;-39
2022/01/04 09:18:56;;;;;;;10.07;4.38;;;7.60;99.90;;;6.04;100.00;99307.19;2570405;30;138167;-39
2022/01/04 09:21:27;;;;;;;9.57;4.30;;;7.60;99.90;;;6.06;100.00;99307.00;2567527;30;138569;-39
2022/01/04 09:23:59;;;;;;;9.43;4.45;;;7.60;99.90;;;6.09;100.00;99306.56;2570963;30;138308;-38
2022/01/04 09:26:28;;;;;;;10.02;4.57;;;7.60;99.90;;;6.09;100.00;99307.38;2570487;30;137478;-39
2022/01/04 09:28:57;;;;;;;8.27;4.07;;;7.70;99.90;;;6.10;100.00;99298.22;2567371;30;138480;-38
2022/01/04 09:31:27;;;;;;;9.05;4.57;;;7.70;99.90;;;6.09;100.00;99304.66;2569151;30;137658;-38
2022/01/04 09:33:58;;;;;;;9.48;4.50;;;7.70;99.90;;;6.11;100.00;99296.31;2569347;30;138349;-41
2022/01/04 09:36:35;;;;;;;8.80;4.25;;;7.70;99.90;;;6.15;100.00;99270.47;2567559;30;137481;-41
2022/01/04 09:39:09;;;;;;;10.18;4.47;;;7.70;99.90;;;6.14;100.00;99279.63;2566326;30;139028;-41
2022/01/04 09:41:37;;;;;;;9.52;5.20;;;7.70;99.90;;;6.12;100.00;99277.16;2566592;30;137416;-41
2022/01/04 09:44:05;;;;;;;8.10;4.20;;;7.70;99.90;;;6.16;100.00;99286.50;2567670;30;137255;-42
2022/01/04 09:46:34;;;;;;;10.57;4.53;;;7.70;99.90;;;6.15;100.00;99294.84;2565554;30;137586;-40
2022/01/04 09:49:02;;;;;;;8.48;4.35;;;7.70;99.90;;;6.18;100.00;99311.47;2567877;30;137277;-41
2022/01/04 09:51:31;;;;;;;8.13;4.38;;;7.70;99.90;;;6.16;100.00;99315.44;2567654;30;136547;-41
2022/01/04 09:53:59;;;;;;;6.82;3.83;;;7.70;99.90;;;6.18;100.00;99308.78;2566216;30;139329;-41
2022/01/04 09:56:27;;;;;;;7.82;3.92;;;7.80;99.90;;;6.16;100.00;99291.91;2565790;30;136883;-41
2022/01/04 09:58:54;;;;;;;7.90;4.10;;;7.70;99.90;;;6.23;100.00;99299.97;2565636;30;139311;-41
2022/01/04 10:01:27;;;;;;;9.05;4.07;;;7.80;99.90;;;6.24;100.00;99312.47;2567897;30;138144;-41
2022/01/04 10:04:16;;;;;;;7.65;4.03;;;7.80;99.90;;;6.25;100.00;99294.34;2566993;30;138319;-42
2022/01/04 10:07:03;;;;;;;8.55;3.88;;;7.80;99.90;;;6.18;100.00;99283.56;2567224;30;137504;-41
2022/01/04 10:09:52;;;;;;;8.45;3.70;;;7.80;99.90;;;6.19;100.00;99291.47;2568042;30;138401;-41
2022/01/04 10:12:21;;;;;;;7.68;3.80;;;7.80;99.90;;;6.21;100.00;99293.13;2568608;30;136695;-41
2022/01/04 10:14:52;;;;;;;6.68;3.15;;;7.80;99.90;;;6.20;100.00;99292.28;2565520;30;139890;-40
2022/01/04 10:17:33;;;;;;;6.63;3.67;;;7.80;99.90;;;6.15;100.00;99281.28;2568314;30;138523;-41
2022/01/04 10:20:02;;;;;;;9.48;3.80;;;7.80;99.90;;;6.19;100.00;99293.34;2565665;30;138921;-41
2022/01/04 10:22:35;;;;;;;7.95;3.70;;;7.80;99.90;;;6.18;100.00;99294.38;2567729;30;137463;-42
2022/01/04 10:25:03;;;;;;;7.07;3.75;;;7.80;99.90;;;6.24;100.00;99306.22;2567911;30;138013;-41
2022/01/04 10:27:45;;;;;;;6.32;3.42;;;7.80;99.90;;;6.29;100.00;99293.69;2569345;30;137057;-41
2022/01/04 10:30:45;;;;;;;5.70;2.95;;;7.80;99.90;;;6.24;100.00;99308.94;2567204;30;138915;-41
2022/01/04 10:33:21;;;;;;;6.50;2.90;;;7.80;99.90;;;6.28;100.00;99302.88;2568252;30;138282;-40
2022/01/04 10:35:55;;;;;;;6.68;3.35;;;7.80;99.90;;;6.31;100.00;99310.53;2567345;30;138977;-42
2022/01/04 10:38:31;;;;;;;6.47;3.38;;;7.80;99.90;;;6.27;100.00;99306.63;2567781;30;138723;-41
2022/01/04 10:41:07;;;;;;;6.63;3.20;;;7.80;99.90;;;6.30;100.00;99299.91;2567820;30;137479;-41